sensor_id;sensor_type;location;lat;lon;timestamp;temperature;humidity
36352;DHT22;22382;44.768;17.206;2022-12-10T00:01:28;15.20;99.90
36352;DHT22;22382;44.768;17.206;2022-12-10T00:03:55;15.00;99.90
36352;DHT22;22382;44.768;17.206;2022-12-10T00:06:27;14.70;99.90
36352;DHT22;22382;44.768;17.206;2022-12-10T00:08:55;14.40;99.90
36352;DHT22;22382;44.768;17.206;2022-12-10T00:11:22;14.60;99.90
36352;DHT22;22382;44.768;17.206;2022-12-10T00:13:50;14.80;99.90
36352;DHT22;22382;44.768;17.206;2022-12-10T00:16:20;15.10;99.90
36352;DHT22;22382;44.768;17.206;2022-12-10T00:18:48;15.30;99.90
36352;DHT22;22382;44.768;17.206;2022-12-10T00:21:23;15.50;99.90
36352;DHT22;22382;44.768;17.206;2022-12-10T00:23:51;15.80;99.90
36352;DHT22;22382;44.768;17.206;2022-12-10T00:26:27;15.90;99.90
36352;DHT22;22382;44.768;17.206;2022-12-10T00:28:55;16.00;99.90
36352;DHT22;22382;44.768;17.206;2022-12-10T00:31:27;16.10;99.90
36352;DHT22;22382;44.768;17.206;2022-12-10T00:33:56;16.10;99.90
36352;DHT22;22382;44.768;17.206;2022-12-10T00:36:26;16.10;99.90
36352;DHT22;22382;44.768;17.206;2022-12-10T00:38:54;16.20;99.90
36352;DHT22;22382;44.768;17.206;2022-12-10T00:41:21;16.20;99.90
36352;DHT22;22382;44.768;17.206;2022-12-10T00:43:48;16.30;99.90
36352;DHT22;22382;44.768;17.206;2022-12-10T00:46:16;16.40;99.90
36352;DHT22;22382;44.768;17.206;2022-12-10T00:48:44;16.40;99.90
36352;DHT22;22382;44.768;17.206;2022-12-10T00:51:17;16.40;99.90
36352;DHT22;22382;44.768;17.206;2022-12-10T00:53:46;16.60;99.90
36352;DHT22;22382;44.768;17.206;2022-12-10T00:56:15;16.50;99.90
36352;DHT22;22382;44.768;17.206;2022-12-10T00:58:42;16.50;99.90
36352;DHT22;22382;44.768;17.206;2022-12-10T01:03:46;16.40;99.90
36352;DHT22;22382;44.768;17.206;2022-12-10T01:07:03;16.40;99.90
36352;DHT22;22382;44.768;17.206;2022-12-10T01:09:15;16.40;99.90
36352;DHT22;22382;44.768;17.206;2022-12-10T01:11:45;16.40;99.90
36352;DHT22;22382;44.768;17.206;2022-12-10T01:14:16;16.50;99.90
36352;DHT22;22382;44.768;17.206;2022-12-10T01:16:44;16.60;99.90
36352;DHT22;22382;44.768;17.206;2022-12-10T01:19:12;16.60;99.90
36352;DHT22;22382;44.768;17.206;2022-12-10T01:21:39;16.60;99.90
36352;DHT22;22382;44.768;17.206;2022-12-10T01:24:07;16.80;99.90
36352;DHT22;22382;44.768;17.206;2022-12-10T01:26:35;16.80;99.90
36352;DHT22;22382;44.768;17.206;2022-12-10T01:29:04;16.80;99.90
36352;DHT22;22382;44.768;17.206;2022-12-10T01:31:33;16.80;99.90
36352;DHT22;22382;44.768;17.206;2022-12-10T01:34:02;16.70;99.90
36352;DHT22;22382;44.768;17.206;2022-12-10T01:36:36;16.80;99.90
36352;DHT22;22382;44.768;17.206;2022-12-10T01:39:06;16.80;99.90
36352;DHT22;22382;44.768;17.206;2022-12-10T01:41:45;16.90;99.90
36352;DHT22;22382;44.768;17.206;2022-12-10T01:46:43;16.90;99.90
36352;DHT22;22382;44.768;17.206;2022-12-10T01:49:13;17.00;99.90
36352;DHT22;22382;44.768;17.206;2022-12-10T01:51:42;17.00;99.90
36352;DHT22;22382;44.768;17.206;2022-12-10T01:54:13;17.00;99.90
36352;DHT22;22382;44.768;17.206;2022-12-10T01:56:46;17.10;99.90
36352;DHT22;22382;44.768;17.206;2022-12-10T01:59:15;17.10;99.90
36352;DHT22;22382;44.768;17.206;2022-12-10T02:10:46;16.80;99.90
36352;DHT22;22382;44.768;17.206;2022-12-10T02:15:54;16.90;99.90
36352;DHT22;22382;44.768;17.206;2022-12-10T02:18:27;16.80;99.90
36352;DHT22;22382;44.768;17.206;2022-12-10T02:20:58;16.80;99.90
36352;DHT22;22382;44.768;17.206;2022-12-10T02:23:32;16.70;99.90
36352;DHT22;22382;44.768;17.206;2022-12-10T02:31:44;16.80;99.90
36352;DHT22;22382;44.768;17.206;2022-12-10T02:34:13;16.80;99.90
36352;DHT22;22382;44.768;17.206;2022-12-10T02:36:44;16.80;99.90
36352;DHT22;22382;44.768;17.206;2022-12-10T02:39:16;16.70;99.90
36352;DHT22;22382;44.768;17.206;2022-12-10T02:41:49;16.70;99.90
36352;DHT22;22382;44.768;17.206;2022-12-10T02:44:19;16.80;99.90
36352;DHT22;22382;44.768;17.206;2022-12-10T02:46:49;16.80;99.90
36352;DHT22;22382;44.768;17.206;2022-12-10T02:49:17;16.80;99.90
36352;DHT22;22382;44.768;17.206;2022-12-10T02:51:44;16.80;99.90
36352;DHT22;22382;44.768;17.206;2022-12-10T02:54:37;16.70;99.90
36352;DHT22;22382;44.768;17.206;2022-12-10T03:12:49;15.10;99.90
36352;DHT22;22382;44.768;17.206;2022-12-10T03:15:19;14.70;99.90
36352;DHT22;22382;44.768;17.206;2022-12-10T03:17:48;14.50;99.90
36352;DHT22;22382;44.768;17.206;2022-12-10T03:20:16;14.40;99.90
36352;DHT22;22382;44.768;17.206;2022-12-10T03:22:45;14.20;99.90
36352;DHT22;22382;44.768;17.206;2022-12-10T03:25:21;14.20;99.90
36352;DHT22;22382;44.768;17.206;2022-12-10T03:27:51;14.10;99.90
36352;DHT22;22382;44.768;17.206;2022-12-10T03:30:20;14.10;99.90
36352;DHT22;22382;44.768;17.206;2022-12-10T03:32:49;14.10;99.90
36352;DHT22;22382;44.768;17.206;2022-12-10T03:35:17;14.10;99.90
36352;DHT22;22382;44.768;17.206;2022-12-10T03:37:46;14.10;99.90
36352;DHT22;22382;44.768;17.206;2022-12-10T03:40:13;14.00;99.90
36352;DHT22;22382;44.768;17.206;2022-12-10T03:42:40;13.90;99.90
36352;DHT22;22382;44.768;17.206;2022-12-10T03:45:08;13.80;99.90
36352;DHT22;22382;44.768;17.206;2022-12-10T03:47:35;13.70;99.90
36352;DHT22;22382;44.768;17.206;2022-12-10T03:50:03;13.60;99.90
36352;DHT22;22382;44.768;17.206;2022-12-10T03:52:30;13.50;99.90
36352;DHT22;22382;44.768;17.206;2022-12-10T03:54:57;13.50;99.90
36352;DHT22;22382;44.768;17.206;2022-12-10T03:57:24;13.40;99.90
36352;DHT22;22382;44.768;17.206;2022-12-10T03:59:51;13.40;99.90
36352;DHT22;22382;44.768;17.206;2022-12-10T04:02:18;13.40;99.90
36352;DHT22;22382;44.768;17.206;2022-12-10T04:04:45;13.50;99.90
36352;DHT22;22382;44.768;17.206;2022-12-10T04:07:12;13.40;99.90
36352;DHT22;22382;44.768;17.206;2022-12-10T04:09:39;13.50;99.90
36352;DHT22;22382;44.768;17.206;2022-12-10T04:12:07;13.50;99.90
36352;DHT22;22382;44.768;17.206;2022-12-10T04:14:34;13.50;99.90
36352;DHT22;22382;44.768;17.206;2022-12-10T04:17:19;13.60;99.90
36352;DHT22;22382;44.768;17.206;2022-12-10T04:19:46;13.70;99.90
36352;DHT22;22382;44.768;17.206;2022-12-10T04:22:13;13.70;99.90
36352;DHT22;22382;44.768;17.206;2022-12-10T04:24:59;13.60;99.90
36352;DHT22;22382;44.768;17.206;2022-12-10T04:27:38;13.50;99.90
36352;DHT22;22382;44.768;17.206;2022-12-10T04:30:09;13.50;99.90
36352;DHT22;22382;44.768;17.206;2022-12-10T04:32:37;13.40;99.90
36352;DHT22;22382;44.768;17.206;2022-12-10T04:35:04;13.40;99.90
36352;DHT22;22382;44.768;17.206;2022-12-10T04:37:32;13.40;99.90
36352;DHT22;22382;44.768;17.206;2022-12-10T04:39:58;13.40;99.90
36352;DHT22;22382;44.768;17.206;2022-12-10T04:42:25;13.40;99.90
36352;DHT22;22382;44.768;17.206;2022-12-10T04:44:52;13.30;99.90
36352;DHT22;22382;44.768;17.206;2022-12-10T04:47:19;13.30;99.90
36352;DHT22;22382;44.768;17.206;2022-12-10T04:49:46;13.20;99.90
36352;DHT22;22382;44.768;17.206;2022-12-10T04:52:15;13.20;99.90
36352;DHT22;22382;44.768;17.206;2022-12-10T04:54:43;13.20;99.90
36352;DHT22;22382;44.768;17.206;2022-12-10T04:57:11;13.20;99.90
36352;DHT22;22382;44.768;17.206;2022-12-10T04:59:38;13.20;99.90
36352;DHT22;22382;44.768;17.206;2022-12-10T05:02:05;13.30;99.90
36352;DHT22;22382;44.768;17.206;2022-12-10T05:04:33;13.20;99.90
36352;DHT22;22382;44.768;17.206;2022-12-10T05:07:00;13.20;99.90
36352;DHT22;22382;44.768;17.206;2022-12-10T05:09:27;13.20;99.90
36352;DHT22;22382;44.768;17.206;2022-12-10T05:11:54;13.30;99.90
36352;DHT22;22382;44.768;17.206;2022-12-10T05:14:21;13.30;99.90
36352;DHT22;22382;44.768;17.206;2022-12-10T05:16:50;13.40;99.90
36352;DHT22;22382;44.768;17.206;2022-12-10T05:19:18;13.40;99.90
36352;DHT22;22382;44.768;17.206;2022-12-10T05:21:50;13.50;99.90
36352;DHT22;22382;44.768;17.206;2022-12-10T05:24:36;13.50;99.90
36352;DHT22;22382;44.768;17.206;2022-12-10T05:27:04;13.60;99.90
36352;DHT22;22382;44.768;17.206;2022-12-10T05:29:32;13.50;99.90
36352;DHT22;22382;44.768;17.206;2022-12-10T05:31:59;13.50;99.90
36352;DHT22;22382;44.768;17.206;2022-12-10T05:34:26;13.40;99.90
36352;DHT22;22382;44.768;17.206;2022-12-10T05:36:53;13.40;99.90
36352;DHT22;22382;44.768;17.206;2022-12-10T05:39:20;13.40;99.90
36352;DHT22;22382;44.768;17.206;2022-12-10T05:41:47;13.40;99.90
36352;DHT22;22382;44.768;17.206;2022-12-10T05:44:14;13.30;99.90
36352;DHT22;22382;44.768;17.206;2022-12-10T05:46:41;13.20;99.90
36352;DHT22;22382;44.768;17.206;2022-12-10T05:49:08;13.20;99.90
36352;DHT22;22382;44.768;17.206;2022-12-10T05:51:37;13.10;99.90
36352;DHT22;22382;44.768;17.206;2022-12-10T05:54:05;13.10;99.90
36352;DHT22;22382;44.768;17.206;2022-12-10T05:56:34;13.00;99.90
36352;DHT22;22382;44.768;17.206;2022-12-10T05:59:02;13.00;99.90
36352;DHT22;22382;44.768;17.206;2022-12-10T06:01:32;13.00;99.90
36352;DHT22;22382;44.768;17.206;2022-12-10T06:04:01;13.00;99.90
36352;DHT22;22382;44.768;17.206;2022-12-10T06:06:31;13.00;99.90
36352;DHT22;22382;44.768;17.206;2022-12-10T06:08:59;13.00;99.90
36352;DHT22;22382;44.768;17.206;2022-12-10T06:11:28;13.00;99.90
36352;DHT22;22382;44.768;17.206;2022-12-10T06:13:57;13.00;99.90
36352;DHT22;22382;44.768;17.206;2022-12-10T06:16:26;13.00;99.90
36352;DHT22;22382;44.768;17.206;2022-12-10T06:18:53;13.00;99.90
36352;DHT22;22382;44.768;17.206;2022-12-10T06:21:21;13.00;99.90
36352;DHT22;22382;44.768;17.206;2022-12-10T06:23:48;13.00;99.90
36352;DHT22;22382;44.768;17.206;2022-12-10T06:26:21;13.00;99.90
36352;DHT22;22382;44.768;17.206;2022-12-10T06:28:49;13.00;99.90
36352;DHT22;22382;44.768;17.206;2022-12-10T06:31:16;13.10;99.90
36352;DHT22;22382;44.768;17.206;2022-12-10T06:33:44;13.10;99.90
36352;DHT22;22382;44.768;17.206;2022-12-10T06:36:12;13.10;99.90
36352;DHT22;22382;44.768;17.206;2022-12-10T06:38:40;13.10;99.90
36352;DHT22;22382;44.768;17.206;2022-12-10T06:41:09;13.10;99.90
36352;DHT22;22382;44.768;17.206;2022-12-10T06:43:36;13.10;99.90
36352;DHT22;22382;44.768;17.206;2022-12-10T06:46:08;13.10;99.90
36352;DHT22;22382;44.768;17.206;2022-12-10T06:48:35;13.10;99.90
36352;DHT22;22382;44.768;17.206;2022-12-10T06:51:04;13.10;99.90
36352;DHT22;22382;44.768;17.206;2022-12-10T06:53:32;13.10;99.90
36352;DHT22;22382;44.768;17.206;2022-12-10T06:56:00;13.10;99.90
36352;DHT22;22382;44.768;17.206;2022-12-10T06:58:28;13.20;99.90
36352;DHT22;22382;44.768;17.206;2022-12-10T07:01:09;13.20;99.90
36352;DHT22;22382;44.768;17.206;2022-12-10T07:03:37;13.20;99.90
36352;DHT22;22382;44.768;17.206;2022-12-10T07:06:07;13.30;99.90
36352;DHT22;22382;44.768;17.206;2022-12-10T07:08:35;13.30;99.90
36352;DHT22;22382;44.768;17.206;2022-12-10T07:11:04;13.40;99.90
36352;DHT22;22382;44.768;17.206;2022-12-10T07:13:32;13.40;99.90
36352;DHT22;22382;44.768;17.206;2022-12-10T07:15:59;13.40;99.90
36352;DHT22;22382;44.768;17.206;2022-12-10T07:18:26;13.40;99.90
36352;DHT22;22382;44.768;17.206;2022-12-10T07:20:54;13.40;99.90
36352;DHT22;22382;44.768;17.206;2022-12-10T07:23:21;13.40;99.90
36352;DHT22;22382;44.768;17.206;2022-12-10T07:25:48;13.40;99.90
36352;DHT22;22382;44.768;17.206;2022-12-10T07:28:15;13.40;99.90
36352;DHT22;22382;44.768;17.206;2022-12-10T07:30:42;13.40;99.90
36352;DHT22;22382;44.768;17.206;2022-12-10T07:33:09;13.40;99.90
36352;DHT22;22382;44.768;17.206;2022-12-10T07:35:39;13.40;99.90
36352;DHT22;22382;44.768;17.206;2022-12-10T07:38:14;13.50;99.90
36352;DHT22;22382;44.768;17.206;2022-12-10T07:40:41;13.50;99.90
36352;DHT22;22382;44.768;17.206;2022-12-10T07:43:08;13.50;99.90
36352;DHT22;22382;44.768;17.206;2022-12-10T07:45:35;13.50;99.90
36352;DHT22;22382;44.768;17.206;2022-12-10T07:48:02;13.50;99.90
36352;DHT22;22382;44.768;17.206;2022-12-10T07:50:29;13.60;99.90
36352;DHT22;22382;44.768;17.206;2022-12-10T07:52:56;13.60;99.90
36352;DHT22;22382;44.768;17.206;2022-12-10T07:55:23;13.60;99.90
36352;DHT22;22382;44.768;17.206;2022-12-10T07:57:50;13.60;99.90
36352;DHT22;22382;44.768;17.206;2022-12-10T08:00:17;13.50;99.90
36352;DHT22;22382;44.768;17.206;2022-12-10T08:02:44;13.40;99.90
36352;DHT22;22382;44.768;17.206;2022-12-10T08:05:11;13.40;99.90
36352;DHT22;22382;44.768;17.206;2022-12-10T08:07:38;13.40;99.90
36352;DHT22;22382;44.768;17.206;2022-12-10T08:10:06;13.40;99.90
36352;DHT22;22382;44.768;17.206;2022-12-10T08:12:33;13.30;99.90
36352;DHT22;22382;44.768;17.206;2022-12-10T08:15:00;13.30;99.90
36352;DHT22;22382;44.768;17.206;2022-12-10T08:17:29;13.30;99.90
36352;DHT22;22382;44.768;17.206;2022-12-10T08:19:56;13.40;99.90
36352;DHT22;22382;44.768;17.206;2022-12-10T08:22:23;13.40;99.90
36352;DHT22;22382;44.768;17.206;2022-12-10T08:24:50;13.40;99.90
36352;DHT22;22382;44.768;17.206;2022-12-10T08:27:17;13.40;99.90
36352;DHT22;22382;44.768;17.206;2022-12-10T08:29:44;13.50;99.90
36352;DHT22;22382;44.768;17.206;2022-12-10T08:32:11;13.50;99.90
36352;DHT22;22382;44.768;17.206;2022-12-10T08:34:38;13.50;99.90
36352;DHT22;22382;44.768;17.206;2022-12-10T08:37:05;13.50;99.90
36352;DHT22;22382;44.768;17.206;2022-12-10T08:39:37;13.60;99.90
36352;DHT22;22382;44.768;17.206;2022-12-10T08:42:04;13.60;99.90
36352;DHT22;22382;44.768;17.206;2022-12-10T08:44:31;13.70;99.90
36352;DHT22;22382;44.768;17.206;2022-12-10T08:46:58;13.70;99.90
36352;DHT22;22382;44.768;17.206;2022-12-10T08:49:26;13.70;99.90
36352;DHT22;22382;44.768;17.206;2022-12-10T08:51:53;13.70;99.90
36352;DHT22;22382;44.768;17.206;2022-12-10T08:54:20;13.70;99.90
36352;DHT22;22382;44.768;17.206;2022-12-10T08:56:47;13.60;99.90
36352;DHT22;22382;44.768;17.206;2022-12-10T08:59:14;13.50;99.90
36352;DHT22;22382;44.768;17.206;2022-12-10T09:01:41;13.40;99.90
36352;DHT22;22382;44.768;17.206;2022-12-10T09:04:08;13.30;99.90
36352;DHT22;22382;44.768;17.206;2022-12-10T09:06:36;13.20;99.90
36352;DHT22;22382;44.768;17.206;2022-12-10T09:09:03;13.10;99.90
36352;DHT22;22382;44.768;17.206;2022-12-10T09:11:32;13.20;99.90
36352;DHT22;22382;44.768;17.206;2022-12-10T09:14:00;13.10;99.90
36352;DHT22;22382;44.768;17.206;2022-12-10T09:16:29;13.10;99.90
36352;DHT22;22382;44.768;17.206;2022-12-10T09:18:57;13.20;99.90
36352;DHT22;22382;44.768;17.206;2022-12-10T09:21:24;13.20;99.90
36352;DHT22;22382;44.768;17.206;2022-12-10T09:23:52;13.10;99.90
36352;DHT22;22382;44.768;17.206;2022-12-10T09:26:19;13.10;99.90
36352;DHT22;22382;44.768;17.206;2022-12-10T09:28:47;13.20;99.90
36352;DHT22;22382;44.768;17.206;2022-12-10T09:31:16;13.20;99.90
36352;DHT22;22382;44.768;17.206;2022-12-10T09:33:48;13.20;99.90
36352;DHT22;22382;44.768;17.206;2022-12-10T09:36:15;13.20;99.90
36352;DHT22;22382;44.768;17.206;2022-12-10T09:38:44;13.10;99.90
36352;DHT22;22382;44.768;17.206;2022-12-10T09:41:19;13.20;99.90
36352;DHT22;22382;44.768;17.206;2022-12-10T09:44:05;13.10;99.90
36352;DHT22;22382;44.768;17.206;2022-12-10T09:49:11;13.30;99.90
36352;DHT22;22382;44.768;17.206;2022-12-10T09:51:40;13.40;99.90
36352;DHT22;22382;44.768;17.206;2022-12-10T09:54:33;13.40;99.90
36352;DHT22;22382;44.768;17.206;2022-12-10T09:57:04;13.50;99.90
36352;DHT22;22382;44.768;17.206;2022-12-10T09:59:38;13.50;99.90
36352;DHT22;22382;44.768;17.206;2022-12-10T10:04:42;13.60;99.90
36352;DHT22;22382;44.768;17.206;2022-12-10T10:07:23;13.60;99.90
36352;DHT22;22382;44.768;17.206;2022-12-10T10:09:55;13.50;99.90
36352;DHT22;22382;44.768;17.206;2022-12-10T10:12:23;13.50;99.90
36352;DHT22;22382;44.768;17.206;2022-12-10T10:14:50;13.60;99.90
36352;DHT22;22382;44.768;17.206;2022-12-10T10:17:27;13.70;99.90
36352;DHT22;22382;44.768;17.206;2022-12-10T10:19:59;13.70;99.90
36352;DHT22;22382;44.768;17.206;2022-12-10T10:22:26;13.60;99.90
36352;DHT22;22382;44.768;17.206;2022-12-10T10:24:53;13.60;99.90
36352;DHT22;22382;44.768;17.206;2022-12-10T10:27:26;13.60;99.90
36352;DHT22;22382;44.768;17.206;2022-12-10T10:29:56;13.60;99.90
36352;DHT22;22382;44.768;17.206;2022-12-10T10:32:43;13.40;99.90
36352;DHT22;22382;44.768;17.206;2022-12-10T10:37:50;13.20;99.90
36352;DHT22;22382;44.768;17.206;2022-12-10T10:40:32;13.20;99.90
36352;DHT22;22382;44.768;17.206;2022-12-10T10:43:00;13.20;99.90
36352;DHT22;22382;44.768;17.206;2022-12-10T10:45:47;13.20;99.90
36352;DHT22;22382;44.768;17.206;2022-12-10T10:48:24;13.10;99.90
36352;DHT22;22382;44.768;17.206;2022-12-10T10:51:26;13.00;99.90
36352;DHT22;22382;44.768;17.206;2022-12-10T10:53:54;12.90;99.90
36352;DHT22;22382;44.768;17.206;2022-12-10T10:56:32;12.90;99.90
36352;DHT22;22382;44.768;17.206;2022-12-10T10:59:16;12.90;99.90
36352;DHT22;22382;44.768;17.206;2022-12-10T11:01:52;12.80;99.90
36352;DHT22;22382;44.768;17.206;2022-12-10T11:07:01;12.90;99.90
36352;DHT22;22382;44.768;17.206;2022-12-10T11:09:32;12.80;99.90
36352;DHT22;22382;44.768;17.206;2022-12-10T11:12:05;12.80;99.90
36352;DHT22;22382;44.768;17.206;2022-12-10T11:14:39;12.80;99.90
36352;DHT22;22382;44.768;17.206;2022-12-10T11:17:19;12.80;99.90
36352;DHT22;22382;44.768;17.206;2022-12-10T11:20:18;12.80;99.90
36352;DHT22;22382;44.768;17.206;2022-12-10T11:22:52;12.80;99.90
36352;DHT22;22382;44.768;17.206;2022-12-10T11:25:38;12.70;99.90
36352;DHT22;22382;44.768;17.206;2022-12-10T11:34:12;12.80;99.90
36352;DHT22;22382;44.768;17.206;2022-12-10T11:42:34;12.60;99.90
36352;DHT22;22382;44.768;17.206;2022-12-10T11:45:07;12.70;99.90
36352;DHT22;22382;44.768;17.206;2022-12-10T11:48:06;12.70;99.90
36352;DHT22;22382;44.768;17.206;2022-12-10T11:50:47;12.70;99.90
36352;DHT22;22382;44.768;17.206;2022-12-10T12:18:14;10.60;99.90
36352;DHT22;22382;44.768;17.206;2022-12-10T12:20:53;10.50;99.90
36352;DHT22;22382;44.768;17.206;2022-12-10T12:26:03;10.50;99.90
36352;DHT22;22382;44.768;17.206;2022-12-10T12:28:38;10.40;99.90
36352;DHT22;22382;44.768;17.206;2022-12-10T12:31:20;10.40;99.90
36352;DHT22;22382;44.768;17.206;2022-12-10T12:34:46;10.40;99.90
36352;DHT22;22382;44.768;17.206;2022-12-10T12:36:46;10.50;99.90
36352;DHT22;22382;44.768;17.206;2022-12-10T12:39:23;10.50;99.90
36352;DHT22;22382;44.768;17.206;2022-12-10T12:42:28;10.50;99.90
36352;DHT22;22382;44.768;17.206;2022-12-10T12:49:57;10.50;99.90
36352;DHT22;22382;44.768;17.206;2022-12-10T12:55:05;10.40;99.90
36352;DHT22;22382;44.768;17.206;2022-12-10T12:57:45;10.40;99.90
36352;DHT22;22382;44.768;17.206;2022-12-10T13:00:18;10.30;99.90
36352;DHT22;22382;44.768;17.206;2022-12-10T13:02:51;10.10;99.90
36352;DHT22;22382;44.768;17.206;2022-12-10T13:05:32;10.10;99.90
36352;DHT22;22382;44.768;17.206;2022-12-10T13:08:24;9.90;99.90
36352;DHT22;22382;44.768;17.206;2022-12-10T13:13:34;9.80;99.90
36352;DHT22;22382;44.768;17.206;2022-12-10T13:25:16;9.50;99.90
36352;DHT22;22382;44.768;17.206;2022-12-10T13:36:12;9.50;99.90
36352;DHT22;22382;44.768;17.206;2022-12-10T13:39:10;9.40;99.90
36352;DHT22;22382;44.768;17.206;2022-12-10T13:42:24;9.40;99.90
36352;DHT22;22382;44.768;17.206;2022-12-10T13:44:49;9.40;99.90
36352;DHT22;22382;44.768;17.206;2022-12-10T13:50:02;9.40;99.90
36352;DHT22;22382;44.768;17.206;2022-12-10T13:52:36;9.30;99.90
36352;DHT22;22382;44.768;17.206;2022-12-10T14:06:17;9.40;99.90
36352;DHT22;22382;44.768;17.206;2022-12-10T14:11:32;9.50;99.90
36352;DHT22;22382;44.768;17.206;2022-12-10T14:14:05;9.40;99.90
36352;DHT22;22382;44.768;17.206;2022-12-10T14:16:34;9.30;99.90
36352;DHT22;22382;44.768;17.206;2022-12-10T14:19:09;9.30;99.90
36352;DHT22;22382;44.768;17.206;2022-12-10T14:21:40;9.30;99.90
36352;DHT22;22382;44.768;17.206;2022-12-10T14:24:47;9.30;99.90
36352;DHT22;22382;44.768;17.206;2022-12-10T14:27:15;9.20;99.90
36352;DHT22;22382;44.768;17.206;2022-12-10T14:30:16;9.10;99.90
36352;DHT22;22382;44.768;17.206;2022-12-10T14:32:45;9.00;99.90
36352;DHT22;22382;44.768;17.206;2022-12-10T14:35:20;9.10;99.90
36352;DHT22;22382;44.768;17.206;2022-12-10T14:37:53;9.10;99.90
36352;DHT22;22382;44.768;17.206;2022-12-10T14:40:27;9.00;99.90
36352;DHT22;22382;44.768;17.206;2022-12-10T14:43:02;9.10;99.90
36352;DHT22;22382;44.768;17.206;2022-12-10T14:45:44;9.20;99.90
36352;DHT22;22382;44.768;17.206;2022-12-10T14:48:12;9.20;99.90
36352;DHT22;22382;44.768;17.206;2022-12-10T14:50:40;9.10;99.90
36352;DHT22;22382;44.768;17.206;2022-12-10T14:53:18;9.00;99.90
36352;DHT22;22382;44.768;17.206;2022-12-10T14:55:56;8.90;99.90
36352;DHT22;22382;44.768;17.206;2022-12-10T14:58:40;8.80;99.90
36352;DHT22;22382;44.768;17.206;2022-12-10T15:01:20;8.80;99.90
36352;DHT22;22382;44.768;17.206;2022-12-10T15:03:49;8.60;99.90
36352;DHT22;22382;44.768;17.206;2022-12-10T15:06:18;8.60;99.90
36352;DHT22;22382;44.768;17.206;2022-12-10T15:08:47;8.60;99.90
36352;DHT22;22382;44.768;17.206;2022-12-10T15:11:17;8.50;99.90
36352;DHT22;22382;44.768;17.206;2022-12-10T15:13:50;8.30;99.90
36352;DHT22;22382;44.768;17.206;2022-12-10T15:21:48;8.30;99.90
36352;DHT22;22382;44.768;17.206;2022-12-10T15:24:27;8.40;99.90
36352;DHT22;22382;44.768;17.206;2022-12-10T15:26:54;8.40;99.90
36352;DHT22;22382;44.768;17.206;2022-12-10T15:32:03;8.20;99.90
36352;DHT22;22382;44.768;17.206;2022-12-10T15:34:42;8.20;99.90
36352;DHT22;22382;44.768;17.206;2022-12-10T15:39:50;8.40;99.90
36352;DHT22;22382;44.768;17.206;2022-12-10T15:42:42;8.20;99.90
36352;DHT22;22382;44.768;17.206;2022-12-10T15:45:27;8.00;99.90
36352;DHT22;22382;44.768;17.206;2022-12-10T15:48:07;7.90;99.90
36352;DHT22;22382;44.768;17.206;2022-12-10T15:50:40;7.80;99.90
36352;DHT22;22382;44.768;17.206;2022-12-10T15:53:13;7.80;99.90
36352;DHT22;22382;44.768;17.206;2022-12-10T15:55:40;7.80;99.90
36352;DHT22;22382;44.768;17.206;2022-12-10T15:58:12;7.70;99.90
36352;DHT22;22382;44.768;17.206;2022-12-10T16:00:41;7.60;99.90
36352;DHT22;22382;44.768;17.206;2022-12-10T16:03:13;7.60;99.90
36352;DHT22;22382;44.768;17.206;2022-12-10T16:05:41;7.50;99.90
36352;DHT22;22382;44.768;17.206;2022-12-10T16:08:18;7.40;99.90
36352;DHT22;22382;44.768;17.206;2022-12-10T16:10:48;7.30;99.90
36352;DHT22;22382;44.768;17.206;2022-12-10T16:13:39;7.30;99.90
36352;DHT22;22382;44.768;17.206;2022-12-10T16:16:10;7.10;99.90
36352;DHT22;22382;44.768;17.206;2022-12-10T16:18:39;7.00;99.90
36352;DHT22;22382;44.768;17.206;2022-12-10T16:21:07;7.10;99.90
36352;DHT22;22382;44.768;17.206;2022-12-10T16:23:34;7.10;99.90
36352;DHT22;22382;44.768;17.206;2022-12-10T16:26:02;7.10;99.90
36352;DHT22;22382;44.768;17.206;2022-12-10T16:28:29;7.00;99.90
36352;DHT22;22382;44.768;17.206;2022-12-10T16:30:57;7.00;99.90
36352;DHT22;22382;44.768;17.206;2022-12-10T16:33:26;7.00;99.90
36352;DHT22;22382;44.768;17.206;2022-12-10T16:35:54;7.00;99.90
36352;DHT22;22382;44.768;17.206;2022-12-10T16:38:22;7.00;99.90
36352;DHT22;22382;44.768;17.206;2022-12-10T16:40:51;7.00;99.90
36352;DHT22;22382;44.768;17.206;2022-12-10T16:43:21;7.10;99.90
36352;DHT22;22382;44.768;17.206;2022-12-10T16:45:49;7.10;99.90
36352;DHT22;22382;44.768;17.206;2022-12-10T16:48:16;7.10;99.90
36352;DHT22;22382;44.768;17.206;2022-12-10T16:50:44;7.00;99.90
36352;DHT22;22382;44.768;17.206;2022-12-10T16:53:15;7.00;99.90
36352;DHT22;22382;44.768;17.206;2022-12-10T16:55:43;6.90;99.90
36352;DHT22;22382;44.768;17.206;2022-12-10T16:58:14;7.00;99.90
36352;DHT22;22382;44.768;17.206;2022-12-10T17:00:45;6.80;99.90
36352;DHT22;22382;44.768;17.206;2022-12-10T17:03:19;6.70;99.90
36352;DHT22;22382;44.768;17.206;2022-12-10T17:05:55;6.60;99.90
36352;DHT22;22382;44.768;17.206;2022-12-10T17:08:24;6.60;99.90
36352;DHT22;22382;44.768;17.206;2022-12-10T17:10:52;6.70;99.90
36352;DHT22;22382;44.768;17.206;2022-12-10T17:13:40;6.60;99.90
36352;DHT22;22382;44.768;17.206;2022-12-10T17:16:13;6.60;99.90
36352;DHT22;22382;44.768;17.206;2022-12-10T17:18:41;6.60;99.90
36352;DHT22;22382;44.768;17.206;2022-12-10T17:21:08;6.60;99.90
36352;DHT22;22382;44.768;17.206;2022-12-10T17:23:35;6.60;99.90
36352;DHT22;22382;44.768;17.206;2022-12-10T17:26:02;6.70;99.90
36352;DHT22;22382;44.768;17.206;2022-12-10T17:28:30;6.80;99.90
36352;DHT22;22382;44.768;17.206;2022-12-10T17:30:57;6.80;99.90
36352;DHT22;22382;44.768;17.206;2022-12-10T17:33:25;6.80;99.90
36352;DHT22;22382;44.768;17.206;2022-12-10T17:35:52;6.80;99.90
36352;DHT22;22382;44.768;17.206;2022-12-10T17:38:24;6.80;99.90
36352;DHT22;22382;44.768;17.206;2022-12-10T17:40:52;6.80;99.90
36352;DHT22;22382;44.768;17.206;2022-12-10T17:43:19;6.80;99.90
36352;DHT22;22382;44.768;17.206;2022-12-10T17:45:47;6.90;99.90
36352;DHT22;22382;44.768;17.206;2022-12-10T17:48:16;6.80;99.90
36352;DHT22;22382;44.768;17.206;2022-12-10T17:50:45;6.80;99.90
36352;DHT22;22382;44.768;17.206;2022-12-10T17:53:13;6.70;99.90
36352;DHT22;22382;44.768;17.206;2022-12-10T17:55:58;6.60;99.90
36352;DHT22;22382;44.768;17.206;2022-12-10T17:58:26;6.60;99.90
36352;DHT22;22382;44.768;17.206;2022-12-10T18:00:53;6.60;99.90
36352;DHT22;22382;44.768;17.206;2022-12-10T18:03:21;6.60;99.90
36352;DHT22;22382;44.768;17.206;2022-12-10T18:05:48;6.40;99.90
36352;DHT22;22382;44.768;17.206;2022-12-10T18:08:16;6.40;99.90